Time;durP1;ratioP1;P1;durP2;ratioP2;P2;SDS_P1;SDS_P2;PMS_P1;PMS_P2;Temp;Humidity;BMP_temperature;BMP_pressure;BME280_temperature;BME280_humidity;BME280_pressure;Samples;Min_cycle;Max_cycle;Signal;HPM_P1;HPM_P2
2022/04/12 00:01:36;;;;;;;7.72;4.18;;;;;;;8.72;60.41;100916.03;5336885;27;20050;-63
2022/04/12 00:04:07;;;;;;;7.03;3.88;;;;;;;8.69;60.57;100904.78;5338503;27;20721;-63
2022/04/12 00:06:38;;;;;;;6.97;4.45;;;;;;;8.70;60.17;100890.50;5342912;27;20021;-63
2022/04/12 00:09:10;;;;;;;7.45;4.50;;;;;;;8.69;60.32;100894.97;5352083;27;20054;-63
2022/04/12 00:11:42;;;;;;;7.38;3.97;;;;;;;8.65;61.93;100904.13;5339068;27;20030;-63
2022/04/12 00:14:13;;;;;;;6.63;4.22;;;;;;;8.73;60.39;100900.97;5341757;27;21685;-63
2022/04/12 00:16:45;;;;;;;9.05;3.83;;;;;;;8.61;61.71;100891.97;5336869;27;20026;-63
2022/04/12 00:19:16;;;;;;;7.70;4.07;;;;;;;8.61;60.67;100882.22;5339937;27;20034;-63
2022/04/12 00:21:47;;;;;;;7.97;4.30;;;;;;;8.64;60.33;100886.47;5338946;27;20059;-63
2022/04/12 00:24:18;;;;;;;8.98;4.35;;;;;;;8.62;60.93;100889.22;5342403;27;20033;-63
2022/04/12 00:26:50;;;;;;;7.35;3.72;;;;;;;8.61;60.42;100892.84;5342775;27;20027;-63
2022/04/12 00:29:21;;;;;;;7.43;3.80;;;;;;;8.61;60.70;100891.97;5340648;27;20034;-63
2022/04/12 00:31:52;;;;;;;8.10;4.22;;;;;;;8.58;60.53;100887.72;5338156;27;20045;-63
2022/04/12 00:34:24;;;;;;;6.57;3.60;;;;;;;8.58;60.55;100881.56;5342252;27;20031;-63
2022/04/12 00:36:56;;;;;;;8.80;3.65;;;;;;;8.51;60.76;100890.91;5336235;27;20031;-63
2022/04/12 00:39:27;;;;;;;6.63;3.97;;;;;;;8.43;61.72;100888.75;5341851;27;20100;-63
2022/04/12 00:41:58;;;;;;;7.88;3.70;;;;;;;8.48;61.37;100885.81;5342652;27;20465;-63
2022/04/12 00:44:29;;;;;;;8.95;4.18;;;;;;;8.43;62.29;100889.59;5343760;27;20503;-63
2022/04/12 00:47:01;;;;;;;8.63;3.60;;;;;;;8.37;62.27;100889.13;5341382;27;20054;-63
2022/04/12 00:49:32;;;;;;;6.85;3.50;;;;;;;8.37;62.03;100879.34;5340931;27;20034;-63
2022/04/12 00:52:04;;;;;;;7.30;3.78;;;;;;;8.30;62.11;100882.50;5345269;27;20022;-63
2022/04/12 00:54:37;;;;;;;8.07;4.15;;;;;;;8.24;63.81;100886.44;5343434;27;20270;-63
2022/04/12 00:57:10;;;;;;;8.80;3.80;;;;;;;8.23;63.15;100882.94;5347119;27;20438;-63
2022/04/12 00:59:44;;;;;;;6.03;3.72;;;;;;;8.13;63.62;100889.81;5344827;27;20384;-63
2022/04/12 01:02:15;;;;;;;8.25;3.83;;;;;;;8.18;62.29;100892.16;5343884;27;20166;-63
2022/04/12 01:04:47;;;;;;;7.80;3.67;;;;;;;8.13;62.99;100891.59;5345802;27;20384;-63
2022/04/12 01:07:19;;;;;;;7.20;3.88;;;;;;;8.05;63.64;100885.00;5344124;27;20667;-63
2022/04/12 01:09:52;;;;;;;6.32;3.55;;;;;;;8.09;63.61;100874.16;5349093;27;20499;-63
2022/04/12 01:12:23;;;;;;;6.10;3.28;;;;;;;8.07;63.19;100874.25;5345605;27;20027;-63
2022/04/12 01:15:08;;;;;;;7.78;4.00;;;;;;;8.03;63.35;100875.41;5344365;27;20043;-63
2022/04/12 01:17:41;;;;;;;6.13;3.50;;;;;;;8.00;63.36;100871.16;5347630;27;20027;-63
2022/04/12 01:20:13;;;;;;;7.72;3.63;;;;;;;7.96;63.89;100876.78;5349621;27;20532;-63
2022/04/12 01:22:52;;;;;;;6.25;3.67;;;;;;;7.93;64.17;100880.47;5344093;27;20037;-63
2022/04/12 01:25:24;;;;;;;7.70;3.90;;;;;;;7.81;63.85;100878.63;5351612;27;20410;-63
2022/04/12 01:27:56;;;;;;;5.90;3.60;;;;;;;7.89;63.94;100880.78;5343121;27;20038;-63
2022/04/12 01:30:27;;;;;;;8.35;4.22;;;;;;;7.83;66.46;100869.59;5350972;27;20030;-63
2022/04/12 01:32:58;;;;;;;6.82;4.07;;;;;;;7.81;65.93;100874.16;5353804;27;20031;-63
2022/04/12 01:35:29;;;;;;;7.53;3.60;;;;;;;7.63;66.18;100862.91;5351095;27;20065;-63
2022/04/12 01:38:01;;;;;;;7.72;3.65;;;;;;;7.71;66.68;100874.81;5352494;27;20023;-63
2022/04/12 01:40:32;;;;;;;7.38;3.65;;;;;;;7.75;65.71;100871.06;5346896;27;20532;-63
2022/04/12 01:43:04;;;;;;;7.53;4.15;;;;;;;7.61;65.70;100877.22;5350465;27;20065;-63
2022/04/12 01:45:35;;;;;;;8.80;3.80;;;;;;;7.67;67.49;100871.53;5349390;27;20480;-62
2022/04/12 01:48:06;;;;;;;8.40;4.18;;;;;;;7.61;65.58;100871.91;5345681;27;20035;-63
2022/04/12 01:50:38;;;;;;;7.32;4.20;;;;;;;7.64;67.08;100869.06;5349152;27;20053;-63
2022/04/12 01:53:09;;;;;;;7.43;4.03;;;;;;;7.53;66.41;100859.13;5352471;27;20034;-62
2022/04/12 01:55:40;;;;;;;8.73;3.97;;;;;;;7.55;65.93;100865.19;5352247;27;20953;-63
2022/04/12 01:58:11;;;;;;;6.78;3.75;;;;;;;7.53;66.06;100856.47;5345982;27;20113;-63
2022/04/12 02:00:43;;;;;;;8.50;4.22;;;;;;;7.41;66.73;100851.94;5350228;27;20074;-62
2022/04/12 02:03:14;;;;;;;7.18;3.80;;;;;;;7.37;66.89;100853.09;5350332;27;20038;-63
2022/04/12 02:05:47;;;;;;;9.57;4.22;;;;;;;7.41;67.49;100855.44;5350000;27;20027;-63
2022/04/12 02:08:18;;;;;;;6.47;4.15;;;;;;;7.46;67.44;100863.13;5354609;27;20589;-62
2022/04/12 02:10:49;;;;;;;6.32;3.90;;;;;;;7.38;67.23;100868.06;5350173;27;20106;-62
2022/04/12 02:13:20;;;;;;;7.93;3.92;;;;;;;7.25;68.12;100866.19;5350959;27;20071;-63
2022/04/12 02:15:51;;;;;;;9.25;4.90;;;;;;;7.31;69.29;100856.13;5352873;27;20031;-62
2022/04/12 02:18:23;;;;;;;10.93;3.90;;;;;;;7.29;69.00;100864.19;5351516;27;20026;-63
2022/04/12 02:20:54;;;;;;;7.82;4.30;;;;;;;7.17;68.80;100855.19;5349379;27;20297;-63
2022/04/12 02:23:25;;;;;;;8.20;4.10;;;;;;;7.18;68.28;100854.22;5352368;27;20389;-63
2022/04/12 02:25:57;;;;;;;6.72;3.90;;;;;;;7.11;68.64;100850.25;5351907;27;20473;-63
2022/04/12 02:28:28;;;;;;;6.80;4.07;;;;;;;6.99;69.84;100866.94;5350040;27;20049;-63
2022/04/12 02:30:59;;;;;;;6.72;4.00;;;;;;;7.00;70.11;100856.22;5348457;27;20023;-63
2022/04/12 02:33:30;;;;;;;7.40;4.55;;;;;;;7.06;69.13;100860.31;5348091;27;20442;-63
2022/04/12 02:36:02;;;;;;;7.15;4.03;;;;;;;7.01;68.71;100852.63;5352730;27;20084;-63
2022/04/12 02:38:33;;;;;;;6.82;3.88;;;;;;;7.02;69.12;100849.03;5349403;27;20023;-62
2022/04/12 02:41:05;;;;;;;8.95;4.20;;;;;;;6.96;69.66;100848.53;5343306;27;21264;-63
2022/04/12 02:43:36;;;;;;;6.22;3.42;;;;;;;7.00;69.07;100848.28;5344744;27;20298;-63
2022/04/12 02:46:07;;;;;;;8.88;4.32;;;;;;;6.93;72.62;100843.44;5342926;27;20034;-63
2022/04/12 02:48:38;;;;;;;7.80;3.50;;;;;;;6.96;69.64;100837.94;5347730;27;20050;-63
2022/04/12 02:51:10;;;;;;;6.30;3.72;;;;;;;6.98;70.95;100830.72;5344662;27;20034;-63
2022/04/12 02:53:41;;;;;;;7.97;3.70;;;;;;;6.92;70.14;100837.25;5345273;27;20421;-63
2022/04/12 02:56:13;;;;;;;7.53;3.70;;;;;;;6.93;70.16;100840.78;5352292;27;20848;-63
2022/04/12 02:58:44;;;;;;;7.82;4.20;;;;;;;6.93;70.07;100841.63;5345769;27;20073;-63
2022/04/12 03:01:16;;;;;;;8.48;3.63;;;;;;;6.87;70.19;100834.06;5346696;27;20201;-62
2022/04/12 03:03:47;;;;;;;5.80;4.07;;;;;;;6.74;71.41;100836.59;5344088;27;20031;-63
2022/04/12 03:06:18;;;;;;;9.07;5.00;;;;;;;6.72;70.92;100827.03;5341366;27;20285;-62
2022/04/12 03:08:50;;;;;;;7.18;4.03;;;;;;;6.76;70.96;100829.41;5343845;27;20027;-62
2022/04/12 03:11:21;;;;;;;7.82;3.88;;;;;;;6.70;71.02;100815.69;5341415;27;20677;-63
2022/04/12 03:13:53;;;;;;;7.80;4.28;;;;;;;6.73;71.64;100811.03;5342096;27;20046;-63
2022/04/12 03:16:25;;;;;;;7.50;4.35;;;;;;;6.70;71.76;100810.38;5341492;27;20070;-63
2022/04/12 03:18:56;;;;;;;8.77;4.70;;;;;;;6.67;72.00;100817.56;5341566;27;20114;-63
2022/04/12 03:21:27;;;;;;;9.32;4.32;;;;;;;6.58;72.09;100809.31;5339492;27;20469;-63
2022/04/12 03:23:58;;;;;;;9.75;3.97;;;;;;;6.51;72.11;100792.91;5343007;27;20488;-63
2022/04/12 03:26:30;;;;;;;8.60;4.40;;;;;;;6.55;73.12;100793.59;5342681;27;20031;-63
2022/04/12 03:29:02;;;;;;;10.60;4.50;;;;;;;6.52;72.62;100799.06;5341677;27;20087;-63
2022/04/12 03:31:33;;;;;;;8.15;4.00;;;;;;;6.47;74.04;100802.00;5344521;27;20031;-63
2022/04/12 03:34:04;;;;;;;9.95;4.35;;;;;;;6.46;73.20;100787.91;5342211;27;20042;-63
2022/04/12 03:36:36;;;;;;;9.70;4.50;;;;;;;6.40;72.87;100790.91;5338944;27;20023;-63
2022/04/12 03:39:10;;;;;;;6.78;4.47;;;;;;;6.35;73.50;100798.31;5342469;27;20030;-63
2022/04/12 03:41:42;;;;;;;8.32;5.03;;;;;;;6.37;77.13;100811.47;5338140;27;20471;-63
2022/04/12 03:44:14;;;;;;;8.82;4.75;;;;;;;6.28;74.02;100805.75;5342629;27;20341;-63
2022/04/12 03:46:45;;;;;;;6.55;4.53;;;;;;;6.29;75.89;100811.91;5340442;27;20384;-63
2022/04/12 03:49:16;;;;;;;9.45;4.53;;;;;;;6.15;78.93;100810.06;5344615;27;20041;-63
2022/04/12 03:51:48;;;;;;;8.35;4.72;;;;;;;6.28;75.39;100791.66;5339152;27;20027;-63
2022/04/12 03:54:19;;;;;;;7.80;4.50;;;;;;;6.28;74.93;100781.91;5343896;27;20380;-63
2022/04/12 03:56:50;;;;;;;10.82;4.70;;;;;;;6.28;74.69;100778.41;5346148;27;20476;-63
2022/04/12 03:59:22;;;;;;;8.82;4.65;;;;;;;6.32;75.36;100777.28;5339603;27;20263;-63
2022/04/12 04:01:53;;;;;;;7.90;4.53;;;;;;;6.31;75.11;100780.88;5346631;27;20372;-63
2022/04/12 04:04:24;;;;;;;8.13;4.45;;;;;;;6.26;75.10;100788.25;5342539;27;20153;-63
2022/04/12 04:06:55;;;;;;;7.85;4.50;;;;;;;6.31;75.27;100786.19;5340264;27;20571;-63
2022/04/12 04:09:27;;;;;;;10.25;4.72;;;;;;;6.34;74.90;100791.28;5338577;27;20077;-62
2022/04/12 04:11:58;;;;;;;7.43;4.70;;;;;;;6.26;75.10;100785.59;5347106;27;20058;-62
2022/04/12 04:14:31;;;;;;;9.18;4.93;;;;;;;6.35;75.20;100784.19;5343203;27;20047;-62
2022/04/12 04:17:03;;;;;;;8.93;4.38;;;;;;;6.34;74.82;100780.69;5340680;27;20045;-63
2022/04/12 04:19:34;;;;;;;8.35;4.82;;;;;;;6.39;75.03;100780.41;5340665;27;20035;-63
2022/04/12 04:22:05;;;;;;;10.00;4.97;;;;;;;6.43;75.64;100795.19;5339126;27;20019;-63
2022/04/12 04:24:36;;;;;;;7.40;4.57;;;;;;;6.46;74.52;100784.38;5343974;27;20094;-63
2022/04/12 04:27:08;;;;;;;8.00;4.93;;;;;;;6.50;74.94;100777.09;5341046;27;20034;-63
2022/04/12 04:29:40;;;;;;;10.30;5.45;;;;;;;6.35;75.78;100782.41;5342176;27;20045;-63
2022/04/12 04:32:11;;;;;;;8.35;4.68;;;;;;;6.38;74.62;100784.00;5343742;27;20071;-63
2022/04/12 04:34:42;;;;;;;10.43;4.70;;;;;;;6.37;75.07;100793.75;5346723;27;20130;-63
2022/04/12 04:37:13;;;;;;;11.45;5.22;;;;;;;6.37;75.63;100793.75;5346322;27;20282;-63
2022/04/12 04:39:45;;;;;;;8.80;5.03;;;;;;;6.27;77.07;100787.28;5346532;27;20041;-63
2022/04/12 04:42:16;;;;;;;8.98;4.60;;;;;;;6.24;77.42;100795.44;5342600;27;20114;-63
2022/04/12 04:44:47;;;;;;;8.60;5.03;;;;;;;6.23;76.88;100801.66;5347157;27;20038;-63
2022/04/12 04:47:19;;;;;;;10.05;5.43;;;;;;;6.12;77.22;100804.97;5347843;27;20051;-63
2022/04/12 04:49:50;;;;;;;11.35;5.63;;;;;;;6.06;76.93;100826.50;5349446;27;20035;-63
2022/04/12 04:52:23;;;;;;;8.85;4.97;;;;;;;5.98;78.03;100832.22;5325898;27;20080;-62
2022/04/12 04:54:54;;;;;;;11.35;5.30;;;;;;;5.96;80.03;100831.47;5348401;27;20027;-63
2022/04/12 04:57:25;;;;;;;10.00;5.90;;;;;;;5.97;79.58;100834.97;5346338;27;20034;-63
2022/04/12 04:59:56;;;;;;;9.05;5.22;;;;;;;5.88;77.72;100833.66;5349428;27;20741;-63
2022/04/12 05:02:28;;;;;;;8.82;5.40;;;;;;;5.95;78.28;100840.38;5341520;27;20424;-63
2022/04/12 05:05:00;;;;;;;9.13;5.18;;;;;;;5.97;79.09;100835.81;5348451;27;20042;-63
2022/04/12 05:07:32;;;;;;;9.27;5.15;;;;;;;6.01;78.92;100825.91;5342788;27;20042;-63
2022/04/12 05:10:04;;;;;;;9.40;5.55;;;;;;;6.05;78.28;100816.84;5343682;27;20050;-63
2022/04/12 05:12:35;;;;;;;10.38;5.65;;;;;;;6.18;78.01;100803.75;5350093;27;20035;-62
2022/04/12 05:15:07;;;;;;;9.80;5.72;;;;;;;6.23;77.39;100804.31;5348956;27;20046;-63
2022/04/12 05:17:39;;;;;;;10.38;5.50;;;;;;;6.26;77.99;100815.56;5350786;27;20489;-63
2022/04/12 05:20:10;;;;;;;9.80;5.63;;;;;;;6.33;77.33;100816.09;5351224;27;20022;-63
2022/04/12 05:22:41;;;;;;;11.13;5.75;;;;;;;6.48;77.81;100814.28;5348134;27;20027;-63
2022/04/12 05:25:13;;;;;;;9.85;5.10;;;;;;;6.58;77.40;100817.28;5348751;27;20488;-63
2022/04/12 05:27:44;;;;;;;8.73;5.72;;;;;;;6.60;77.17;100818.88;5347952;27;20027;-63
2022/04/12 05:30:16;;;;;;;11.27;5.35;;;;;;;6.71;76.48;100815.56;5346666;27;20461;-63
2022/04/12 05:32:47;;;;;;;7.97;5.40;;;;;;;6.74;76.35;100795.97;5348028;27;20033;-63
2022/04/12 05:35:19;;;;;;;11.57;5.68;;;;;;;6.80;76.06;100795.59;5349671;27;20026;-63
2022/04/12 05:37:53;;;;;;;8.25;5.20;;;;;;;6.80;76.00;100812.34;5350994;27;20027;-63
2022/04/12 05:40:24;;;;;;;10.10;5.50;;;;;;;6.87;75.83;100811.03;5346583;27;20031;-63
2022/04/12 05:42:55;;;;;;;10.82;5.65;;;;;;;6.87;75.69;100807.53;5348336;27;20023;-63
2022/04/12 05:45:27;;;;;;;12.70;5.75;;;;;;;6.89;75.34;100800.34;5349377;27;20037;-63
2022/04/12 05:47:58;;;;;;;9.77;5.38;;;;;;;6.92;75.64;100797.47;5352295;27;20042;-63
2022/04/12 05:50:30;;;;;;;10.25;5.82;;;;;;;6.94;74.98;100803.56;5353313;27;20456;-63
2022/04/12 05:53:01;;;;;;;11.60;6.28;;;;;;;6.94;75.43;100818.59;5352386;27;20083;-63
2022/04/12 05:55:34;;;;;;;7.93;5.38;;;;;;;6.95;75.35;100822.97;5353715;27;20022;-63
2022/04/12 05:58:05;;;;;;;9.10;5.82;;;;;;;6.94;75.14;100821.25;5355133;27;20023;-63
2022/04/12 06:00:37;;;;;;;10.90;5.82;;;;;;;6.96;75.71;100814.94;5352787;27;20057;-63
2022/04/12 06:03:08;;;;;;;9.02;6.13;;;;;;;6.97;76.21;100807.81;5354721;27;20022;-63
2022/04/12 06:05:39;;;;;;;10.43;5.53;;;;;;;7.00;75.37;100815.56;5354765;27;20379;-63
2022/04/12 06:08:11;;;;;;;11.85;5.90;;;;;;;7.01;76.23;100817.28;5355264;27;20030;-63
2022/04/12 06:10:42;;;;;;;11.02;6.10;;;;;;;7.01;76.40;100818.13;5349853;27;21654;-63
2022/04/12 06:13:14;;;;;;;11.07;6.30;;;;;;;7.11;75.75;100815.75;5351800;27;20030;-64
2022/04/12 06:15:45;;;;;;;10.75;6.50;;;;;;;7.17;74.91;100817.19;5350631;27;20023;-63
2022/04/12 06:18:16;;;;;;;11.07;6.40;;;;;;;7.17;75.65;100812.75;5350553;27;20046;-63
2022/04/12 06:20:48;;;;;;;9.98;5.72;;;;;;;7.23;75.43;100808.84;5350400;27;20026;-63
2022/04/12 06:23:20;;;;;;;10.50;6.97;;;;;;;7.26;75.44;100816.59;5352829;27;20031;-63
2022/04/12 06:25:51;;;;;;;10.82;6.45;;;;;;;7.27;75.02;100818.31;5354134;27;20492;-63
2022/04/12 06:28:22;;;;;;;11.48;6.20;;;;;;;7.36;75.64;100816.88;5350914;27;20067;-63
2022/04/12 06:30:55;;;;;;;12.40;6.55;;;;;;;7.50;74.32;100813.31;5350532;27;20022;-63
2022/04/12 06:33:27;;;;;;;9.52;6.00;;;;;;;7.61;74.53;100824.13;5350663;27;20026;-63
2022/04/12 06:35:58;;;;;;;10.02;6.40;;;;;;;7.66;74.00;100817.56;5350516;27;20416;-63
2022/04/12 06:38:29;;;;;;;12.75;5.90;;;;;;;7.69;74.29;100824.50;5350842;27;20056;-63
2022/04/12 06:41:01;;;;;;;10.60;5.93;;;;;;;7.71;74.70;100821.72;5351724;27;20026;-63
2022/04/12 06:43:32;;;;;;;10.75;6.07;;;;;;;7.83;73.46;100823.59;5349977;27;21173;-63
2022/04/12 06:46:03;;;;;;;10.55;5.60;;;;;;;7.89;73.77;100819.69;5357124;27;20034;-63
2022/04/12 06:48:34;;;;;;;9.95;5.50;;;;;;;8.01;73.54;100818.84;5355481;27;20066;-63
2022/04/12 06:51:06;;;;;;;12.50;5.90;;;;;;;8.13;72.73;100802.13;5356618;27;20030;-63
2022/04/12 06:53:37;;;;;;;11.45;5.75;;;;;;;8.19;73.37;100800.84;5354414;27;20062;-63
2022/04/12 06:56:09;;;;;;;9.15;5.95;;;;;;;8.25;73.19;100816.38;5354973;27;20109;-63
2022/04/12 06:58:40;;;;;;;16.63;6.25;;;;;;;8.38;71.87;100809.28;5352948;27;20404;-63
2022/04/12 07:01:11;;;;;;;10.02;5.82;;;;;;;8.42;73.66;100818.78;5356096;27;20487;-63
2022/04/12 07:03:42;;;;;;;9.13;6.32;;;;;;;8.57;72.86;100808.03;5353738;27;20038;-63
2022/04/12 07:06:14;;;;;;;10.50;5.40;;;;;;;8.68;72.69;100812.63;5347703;27;20023;-63
2022/04/12 07:08:45;;;;;;;11.80;5.47;;;;;;;8.83;72.23;100807.09;5333938;27;20166;-63
2022/04/12 07:11:16;;;;;;;9.48;5.55;;;;;;;8.97;70.67;100803.44;5349103;27;20536;-63
2022/04/12 07:13:47;;;;;;;10.88;5.75;;;;;;;9.10;70.81;100795.44;5349655;27;20059;-63
2022/04/12 07:16:19;;;;;;;13.30;6.20;;;;;;;9.23;70.19;100801.59;5351608;27;20026;-63
2022/04/12 07:18:50;;;;;;;12.27;5.63;;;;;;;9.36;71.69;100811.41;5350285;27;20034;-63
2022/04/12 07:21:21;;;;;;;11.48;5.32;;;;;;;9.52;69.51;100819.97;5350191;27;20041;-63
2022/04/12 07:23:52;;;;;;;11.07;5.72;;;;;;;9.75;68.90;100814.78;5352437;27;20129;-63
2022/04/12 07:26:24;;;;;;;9.57;5.18;;;;;;;9.86;68.06;100817.50;5350786;27;20026;-63
2022/04/12 07:28:55;;;;;;;9.25;5.00;;;;;;;10.01;68.11;100803.03;5347943;27;20114;-63
2022/04/12 07:31:27;;;;;;;9.95;5.05;;;;;;;10.33;66.06;100806.91;5351420;27;20765;-63
2022/04/12 07:33:58;;;;;;;7.68;4.70;;;;;;;10.44;66.47;100803.44;5350414;27;20023;-63
2022/04/12 07:36:30;;;;;;;7.78;4.53;;;;;;;10.65;65.01;100801.78;5334412;27;20516;-63
2022/04/12 07:39:01;;;;;;;10.52;5.30;;;;;;;10.72;66.94;100805.69;5352293;27;20535;-63
2022/04/12 07:41:32;;;;;;;9.60;4.88;;;;;;;10.94;65.29;100801.31;5350669;27;20121;-63
2022/04/12 07:44:04;;;;;;;7.65;4.57;;;;;;;11.14;65.68;100799.72;5352799;27;20381;-63
2022/04/12 07:46:35;;;;;;;9.35;5.15;;;;;;;11.30;63.74;100796.69;5352310;27;20030;-63
2022/04/12 07:49:06;;;;;;;8.38;4.68;;;;;;;11.51;62.77;100811.00;5350605;27;20019;-63
2022/04/12 07:51:38;;;;;;;7.25;4.75;;;;;;;11.68;62.77;100804.28;5347837;27;20031;-63
2022/04/12 07:54:10;;;;;;;9.43;4.95;;;;;;;11.80;64.42;100806.94;5351609;27;20030;-63
2022/04/12 07:56:41;;;;;;;6.93;4.47;;;;;;;11.99;63.71;100803.59;5327399;27;20480;-63
2022/04/12 07:59:12;;;;;;;7.97;4.30;;;;;;;12.13;62.00;100811.31;5354796;27;20027;-63
2022/04/12 08:01:43;;;;;;;9.50;4.85;;;;;;;12.43;62.24;100804.38;5348387;27;20031;-63
2022/04/12 08:04:15;;;;;;;7.97;4.50;;;;;;;12.49;61.14;100799.31;5322581;27;20580;-64
2022/04/12 08:06:46;;;;;;;6.50;4.13;;;;;;;12.81;58.90;100810.91;5352122;27;20038;-63
2022/04/12 08:09:17;;;;;;;10.32;4.43;;;;;;;12.97;57.82;100811.28;5347986;27;20162;-64
2022/04/12 08:11:48;;;;;;;7.38;4.30;;;;;;;13.02;59.74;100811.75;5352527;27;20025;-63
2022/04/12 08:14:20;;;;;;;6.20;4.15;;;;;;;13.16;59.75;100815.03;5351574;27;20517;-63
2022/04/12 08:16:52;;;;;;;11.55;4.45;;;;;;;13.28;57.22;100813.97;5347513;27;20507;-63
2022/04/12 08:19:23;;;;;;;7.47;4.35;;;;;;;13.31;59.49;100805.69;5351338;27;20480;-63
2022/04/12 08:21:54;;;;;;;7.88;4.18;;;;;;;13.34;59.28;100818.78;5349297;27;20030;-63
2022/04/12 08:24:26;;;;;;;7.25;3.92;;;;;;;13.59;57.93;100817.44;5348811;27;20095;-63
2022/04/12 08:26:57;;;;;;;6.57;3.88;;;;;;;13.66;58.05;100815.91;5348553;27;20038;-63
2022/04/12 08:29:28;;;;;;;5.65;3.33;;;;;;;13.79;57.33;100814.78;5351825;27;20106;-63
2022/04/12 08:32:00;;;;;;;6.80;3.67;;;;;;;13.93;56.19;100820.63;5350367;27;20069;-63
2022/04/12 08:34:31;;;;;;;6.68;3.65;;;;;;;14.08;55.69;100825.56;5352719;27;20159;-61
2022/04/12 08:37:05;;;;;;;10.98;3.80;;;;;;;14.21;55.71;100817.22;5348334;27;20133;-62
2022/04/12 08:39:36;;;;;;;7.57;3.30;;;;;;;14.24;54.59;100819.63;5346178;27;20026;-61
2022/04/12 08:42:07;;;;;;;8.30;3.90;;;;;;;14.39;55.22;100801.28;5357831;27;20100;-62
2022/04/12 08:44:44;;;;;;;5.28;2.83;;;;;;;14.44;54.34;100798.97;5357333;27;20057;-62
2022/04/12 08:47:18;;;;;;;5.18;2.50;;;;;;;14.42;55.91;100790.22;5347917;27;20034;-63
2022/04/12 08:49:49;;;;;;;7.20;2.50;;;;;;;14.59;55.43;100780.63;5351281;27;20049;-62
2022/04/12 08:52:22;;;;;;;4.45;2.40;;;;;;;14.70;53.18;100777.75;5354300;27;20031;-61
2022/04/12 08:54:53;;;;;;;5.45;2.63;;;;;;;14.79;53.43;100773.38;5349189;27;20101;-63
2022/04/12 08:57:25;;;;;;;6.00;2.33;;;;;;;14.82;53.53;100776.63;5353405;27;20121;-62
2022/04/12 08:59:56;;;;;;;5.57;2.45;;;;;;;14.82;53.97;100781.13;5350591;27;20138;-62
2022/04/12 09:02:27;;;;;;;6.78;2.50;;;;;;;14.96;52.97;100771.72;5357912;27;20524;-61
2022/04/12 09:04:59;;;;;;;8.68;3.08;;;;;;;15.03;52.00;100776.38;5357489;27;20029;-62
2022/04/12 09:07:30;;;;;;;5.43;2.40;;;;;;;15.14;51.74;100775.31;5354301;27;20034;-62
2022/04/12 09:10:09;;;;;;;6.80;2.63;;;;;;;15.27;52.44;100781.22;5357806;27;20472;-62
2022/04/12 09:12:40;;;;;;;7.15;2.47;;;;;;;15.32;51.26;100782.59;5351626;27;20508;-62
2022/04/12 09:15:14;;;;;;;5.20;2.40;;;;;;;15.46;53.21;100766.81;5349892;27;20057;-62
2022/04/12 09:17:48;;;;;;;5.75;2.60;;;;;;;15.55;51.56;100765.06;5349843;27;21502;-61
2022/04/12 09:20:19;;;;;;;6.73;2.77;;;;;;;15.60;51.70;100753.84;5350701;27;20022;-62
2022/04/12 09:22:50;;;;;;;5.80;2.58;;;;;;;15.60;50.76;100745.78;5352581;27;20037;-62
2022/04/12 09:25:22;;;;;;;5.47;2.67;;;;;;;15.76;52.18;100742.41;5346949;27;20035;-63
2022/04/12 09:27:55;;;;;;;5.10;2.22;;;;;;;15.72;52.83;100746.38;5352524;27;20027;-62
2022/04/12 09:30:30;;;;;;;7.43;2.90;;;;;;;15.84;50.56;100742.53;5352239;27;20054;-62
2022/04/12 09:33:01;;;;;;;6.78;2.58;;;;;;;16.00;51.99;100739.13;5355254;27;20118;-62
2022/04/12 09:35:32;;;;;;;6.03;2.25;;;;;;;16.04;50.29;100740.50;5361048;27;20031;-62
2022/04/12 09:38:04;;;;;;;5.88;2.70;;;;;;;16.05;51.41;100740.34;5364547;27;20425;-62
2022/04/12 09:40:35;;;;;;;6.43;2.55;;;;;;;16.12;50.76;100748.63;5358575;27;20460;-63
2022/04/12 09:43:11;;;;;;;7.88;2.60;;;;;;;16.17;52.35;100750.88;5359547;27;20068;-62
2022/04/12 09:45:43;;;;;;;5.75;2.45;;;;;;;16.31;50.28;100755.66;5358194;27;20030;-62
2022/04/12 09:48:15;;;;;;;8.43;2.63;;;;;;;16.24;52.06;100747.38;5354500;27;20417;-63
2022/04/12 09:50:50;;;;;;;4.75;2.20;;;;;;;16.42;50.71;100759.97;5350228;27;20027;-63
2022/04/12 09:53:38;;;;;;;5.22;2.33;;;;;;;16.44;53.26;100756.09;5361591;27;20066;-62
2022/04/12 09:56:30;;;;;;;7.55;2.53;;;;;;;16.63;51.48;100746.13;5353450;27;20384;-62
2022/04/12 09:59:06;;;;;;;7.72;2.40;;;;;;;16.79;49.28;100758.84;5359194;27;20038;-63
2022/04/12 10:01:41;;;;;;;7.35;2.42;;;;;;;16.83;50.70;100755.69;5348885;27;20117;-62
2022/04/12 10:04:15;;;;;;;6.03;2.60;;;;;;;17.00;49.17;100753.91;5356668;27;20023;-62
2022/04/12 10:06:47;;;;;;;5.13;2.35;;;;;;;17.14;48.57;100738.97;5355343;27;20485;-61
2022/04/12 10:09:20;;;;;;;7.25;2.33;;;;;;;17.22;47.91;100741.72;5359531;27;20083;-62
2022/04/12 10:11:51;;;;;;;6.70;2.70;;;;;;;17.36;47.60;100736.69;5355581;27;20019;-62
2022/04/12 10:14:23;;;;;;;6.32;2.30;;;;;;;17.41;50.45;100721.72;5333696;27;20054;-62
2022/04/12 10:16:56;;;;;;;5.63;2.75;;;;;;;17.69;47.53;100713.31;5345447;27;20539;-62
2022/04/12 10:19:29;;;;;;;6.90;2.40;;;;;;;17.71;48.73;100723.94;5356998;27;20030;-62
2022/04/12 10:22:02;;;;;;;5.43;2.60;;;;;;;17.94;49.31;100719.59;5353633;27;20029;-62
2022/04/12 10:24:35;;;;;;;5.55;2.65;;;;;;;18.02;45.84;100721.44;5350026;27;20046;-62
2022/04/12 10:27:08;;;;;;;6.72;2.53;;;;;;;18.17;47.70;100708.13;5352301;27;20099;-63
2022/04/12 10:29:39;;;;;;;8.00;3.08;;;;;;;18.21;46.72;100704.06;5354244;27;20448;-63
2022/04/12 10:32:12;;;;;;;6.68;2.88;;;;;;;18.30;47.33;100702.19;5361332;27;20105;-62
2022/04/12 10:34:59;;;;;;;8.50;2.92;;;;;;;18.36;48.32;100696.09;5356973;27;20035;-62
2022/04/12 10:37:32;;;;;;;6.47;2.40;;;;;;;18.50;46.35;100697.25;5355720;27;20066;-63
2022/04/12 10:40:04;;;;;;;6.70;2.60;;;;;;;18.64;44.94;100706.50;5358561;27;20066;-62
2022/04/12 10:42:37;;;;;;;6.97;2.70;;;;;;;18.72;44.90;100695.69;5357420;27;20106;-62
2022/04/12 10:45:10;;;;;;;6.45;2.75;;;;;;;18.88;44.98;100692.09;5355716;27;20034;-62
2022/04/12 10:47:44;;;;;;;4.85;2.60;;;;;;;18.81;46.32;100705.44;5363209;27;20060;-62
2022/04/12 10:50:17;;;;;;;5.38;2.38;;;;;;;19.16;44.57;100703.28;5356509;27;20106;-62
2022/04/12 10:52:49;;;;;;;5.70;2.88;;;;;;;19.28;44.04;100695.59;5347577;27;20041;-62
2022/04/12 10:55:26;;;;;;;6.88;2.70;;;;;;;19.25;43.12;100690.53;5355729;27;20084;-62
2022/04/12 10:58:27;;;;;;;6.63;2.88;;;;;;;19.30;45.05;100685.44;5350853;27;20364;-62
2022/04/12 11:00:59;;;;;;;5.43;2.80;;;;;;;19.38;41.77;100675.41;5348338;27;20023;-62
2022/04/12 11:03:40;;;;;;;6.20;2.40;;;;;;;19.40;44.25;100677.94;5351761;27;20029;-62
2022/04/12 11:06:12;;;;;;;9.57;2.45;;;;;;;19.51;43.12;100682.09;5350872;27;20030;-62
2022/04/12 11:08:48;;;;;;;7.05;2.50;;;;;;;19.81;42.41;100693.06;5351087;27;20029;-62
2022/04/12 11:11:27;;;;;;;5.95;2.50;;;;;;;19.93;42.84;100695.16;5352056;27;20472;-62
2022/04/12 11:14:24;;;;;;;3.95;2.00;;;;;;;20.13;44.49;100691.94;5356334;27;20047;-62
2022/04/12 11:17:01;;;;;;;5.65;2.28;;;;;;;20.06;41.98;100704.50;5351896;27;20425;-62
2022/04/12 11:19:45;;;;;;;6.55;2.40;;;;;;;20.06;43.92;100682.84;5349931;27;20034;-62
2022/04/12 11:22:18;;;;;;;6.57;2.33;;;;;;;20.13;42.68;100683.81;5349158;27;20483;-62
2022/04/12 11:25:15;;;;;;;4.90;2.35;;;;;;;20.31;43.41;100678.88;5350969;27;20495;-62
2022/04/12 11:27:55;;;;;;;8.52;2.22;;;;;;;20.35;42.00;100682.06;5350944;27;20033;-62
2022/04/12 11:30:27;;;;;;;7.53;2.40;;;;;;;20.37;41.70;100690.84;5349373;27;20029;-62
2022/04/12 11:32:58;;;;;;;4.93;2.38;;;;;;;20.55;40.96;100666.91;5349936;27;20038;-62
2022/04/12 11:35:30;;;;;;;7.30;3.20;;;;;;;20.51;41.63;100657.47;5350857;27;20727;-62
2022/04/12 11:38:04;;;;;;;6.32;2.70;;;;;;;20.68;40.97;100660.03;5351646;27;20078;-62
2022/04/12 11:40:41;;;;;;;5.28;2.80;;;;;;;20.70;42.60;100666.94;5350397;27;20031;-62
2022/04/12 11:43:26;;;;;;;7.50;2.72;;;;;;;20.64;42.66;100669.59;5349258;27;20156;-62
2022/04/12 11:45:58;;;;;;;6.95;2.97;;;;;;;20.61;42.44;100678.09;5348554;27;20315;-62
2022/04/12 11:48:32;;;;;;;6.78;2.72;;;;;;;20.68;39.97;100684.44;5345524;27;20055;-62
2022/04/12 11:51:05;;;;;;;8.70;2.78;;;;;;;20.69;40.34;100677.97;5349927;27;20122;-62
2022/04/12 11:53:47;;;;;;;6.00;3.10;;;;;;;20.69;42.80;100677.97;5348480;27;20505;-62